createdAt,value
2018-10-16T00:01:27.901Z,8.00
2018-10-16T00:03:56.245Z,9.00
2018-10-16T00:06:24.629Z,8.37
2018-10-16T00:08:52.983Z,8.63
2018-10-16T00:11:22.121Z,8.53
2018-10-16T00:13:50.470Z,9.10
2018-10-16T00:16:18.816Z,9.17
2018-10-16T00:18:47.165Z,9.00
2018-10-16T00:21:15.553Z,8.43
2018-10-16T00:23:43.930Z,8.50
2018-10-16T00:26:12.291Z,8.70
2018-10-16T00:28:40.674Z,8.27
2018-10-16T00:31:09.034Z,7.90
2018-10-16T00:33:37.510Z,8.00
2018-10-16T00:36:05.858Z,8.50
2018-10-16T00:38:34.210Z,8.13
2018-10-16T00:41:02.648Z,8.10
2018-10-16T00:43:31.001Z,7.80
2018-10-16T00:46:00.124Z,8.00
2018-10-16T00:48:28.489Z,8.03
2018-10-16T00:50:57.628Z,7.93
2018-10-16T00:53:25.977Z,8.13
2018-10-16T00:55:54.382Z,7.93
2018-10-16T00:58:22.738Z,8.13
2018-10-16T01:00:51.113Z,8.27
2018-10-16T01:03:19.469Z,7.93
2018-10-16T01:05:47.817Z,8.33
2018-10-16T01:08:16.196Z,7.60
2018-10-16T01:10:44.528Z,7.90
2018-10-16T01:13:12.914Z,7.67
2018-10-16T01:15:42.004Z,7.57
2018-10-16T01:18:10.386Z,8.00
2018-10-16T01:20:38.763Z,8.03
2018-10-16T01:23:07.161Z,8.60
2018-10-16T01:25:35.520Z,9.00
2018-10-16T01:28:03.932Z,8.00
2018-10-16T01:30:32.255Z,7.53
2018-10-16T01:33:01.442Z,7.67
2018-10-16T01:35:29.828Z,7.27
2018-10-16T01:37:58.231Z,7.90
2018-10-16T01:40:26.583Z,7.17
2018-10-16T01:42:55.117Z,7.20
2018-10-16T01:45:23.442Z,7.67
2018-10-16T01:47:51.797Z,7.13
2018-10-16T01:50:20.143Z,8.67
2018-10-16T01:52:48.495Z,8.07
2018-10-16T01:55:16.909Z,8.00
2018-10-16T01:57:45.267Z,7.67
2018-10-16T02:00:13.647Z,7.53
2018-10-16T02:02:42.068Z,8.27
2018-10-16T02:05:10.497Z,7.97
2018-10-16T02:07:38.836Z,8.60
2018-10-16T02:10:07.248Z,8.67
2018-10-16T02:12:36.365Z,8.97
2018-10-16T02:15:04.734Z,8.77
2018-10-16T02:17:33.879Z,8.27
2018-10-16T02:20:02.237Z,8.90
2018-10-16T02:22:30.599Z,9.10
2018-10-16T02:24:59.741Z,9.47
2018-10-16T02:27:28.140Z,9.07
2018-10-16T02:29:56.472Z,9.60
2018-10-16T02:32:24.862Z,9.57
2018-10-16T02:34:53.216Z,9.60
2018-10-16T02:37:21.596Z,9.80
2018-10-16T02:39:49.928Z,9.67
2018-10-16T02:42:18.266Z,9.00
2018-10-16T02:44:46.662Z,9.37
2018-10-16T02:47:15.102Z,9.80
2018-10-16T02:49:44.217Z,8.97
2018-10-16T02:52:12.568Z,9.27
2018-10-16T02:54:41.684Z,9.50
2018-10-16T02:57:10.060Z,9.53
2018-10-16T02:59:39.200Z,9.20
2018-10-16T03:02:07.552Z,8.63
2018-10-16T03:04:35.936Z,9.97
2018-10-16T03:07:04.328Z,8.83
2018-10-16T03:09:32.681Z,9.23
2018-10-16T03:12:01.030Z,9.37
2018-10-16T03:14:30.150Z,9.37
2018-10-16T03:16:58.533Z,9.93
2018-10-16T03:19:26.868Z,9.13
2018-10-16T03:21:55.253Z,9.90
2018-10-16T03:24:23.586Z,9.23
2018-10-16T03:26:51.985Z,8.90
2018-10-16T03:29:20.375Z,9.27
2018-10-16T03:31:48.807Z,10.17
2018-10-16T03:34:17.195Z,10.13
2018-10-16T03:36:45.570Z,10.33
2018-10-16T03:39:13.959Z,10.67
2018-10-16T03:41:42.365Z,10.63
2018-10-16T03:44:10.703Z,10.50
2018-10-16T03:46:39.099Z,10.30
2018-10-16T03:49:07.464Z,10.50
2018-10-16T03:51:35.855Z,10.50
2018-10-16T03:54:04.301Z,11.13
2018-10-16T03:56:32.637Z,10.60
2018-10-16T03:59:01.087Z,10.33
2018-10-16T04:01:29.443Z,10.73
2018-10-16T04:03:57.811Z,10.07
2018-10-16T04:06:26.274Z,10.07
2018-10-16T04:08:54.607Z,10.30
2018-10-16T04:11:22.949Z,9.50
2018-10-16T04:13:51.396Z,10.93
2018-10-16T04:16:19.694Z,10.87
2018-10-16T04:18:48.088Z,9.80
2018-10-16T04:21:16.444Z,10.07
2018-10-16T04:23:44.817Z,10.20
2018-10-16T04:26:13.165Z,10.07
2018-10-16T04:28:41.533Z,10.27
2018-10-16T04:31:10.652Z,10.90
2018-10-16T04:33:39.026Z,10.13
2018-10-16T04:36:07.431Z,9.80
2018-10-16T04:38:36.622Z,9.77
2018-10-16T04:41:04.953Z,10.97
2018-10-16T04:43:33.345Z,9.73
2018-10-16T04:46:01.727Z,10.20
2018-10-16T04:48:30.103Z,9.77
2018-10-16T04:50:58.481Z,10.53
2018-10-16T04:53:27.703Z,10.87
2018-10-16T04:55:56.164Z,10.47
2018-10-16T04:58:25.272Z,9.97
2018-10-16T05:00:53.623Z,10.17
2018-10-16T05:03:21.991Z,11.03
2018-10-16T05:05:50.400Z,10.00
2018-10-16T05:08:18.903Z,10.53
2018-10-16T05:10:47.269Z,11.17
2018-10-16T05:13:15.959Z,10.40
2018-10-16T05:15:44.257Z,10.33
2018-10-16T05:18:12.659Z,10.83
2018-10-16T05:20:41.041Z,9.53
2018-10-16T05:23:09.613Z,11.33
2018-10-16T05:25:37.973Z,9.30
2018-10-16T05:28:07.945Z,10.67
2018-10-16T05:30:37.305Z,10.20
2018-10-16T05:33:05.641Z,10.17
2018-10-16T05:35:34.019Z,10.53
2018-10-16T05:38:02.388Z,10.17
2018-10-16T05:40:31.506Z,10.50
2018-10-16T05:43:00.618Z,11.30
2018-10-16T05:45:28.985Z,12.03
2018-10-16T05:47:57.379Z,12.27
2018-10-16T05:50:25.739Z,11.73
2018-10-16T05:52:54.113Z,10.83
2018-10-16T05:55:22.475Z,11.53
2018-10-16T05:57:51.632Z,11.60
2018-10-16T06:00:27.724Z,11.60
2018-10-16T06:02:56.380Z,11.77
2018-10-16T06:05:24.734Z,11.80
2018-10-16T06:07:53.080Z,11.47
2018-10-16T06:10:22.268Z,11.83
2018-10-16T06:12:50.603Z,11.33
2018-10-16T06:15:19.014Z,12.57
2018-10-16T06:17:47.406Z,11.63
2018-10-16T06:20:16.721Z,12.30
2018-10-16T06:22:45.123Z,12.70
2018-10-16T06:25:13.506Z,12.43
2018-10-16T06:27:41.947Z,12.03
2018-10-16T06:30:10.267Z,12.37
2018-10-16T06:32:38.633Z,11.97
2018-10-16T06:35:07.804Z,11.30
2018-10-16T06:37:36.269Z,12.30
2018-10-16T06:40:04.767Z,11.37
2018-10-16T06:42:34.045Z,12.13
2018-10-16T06:45:02.587Z,12.57
2018-10-16T06:47:31.003Z,12.53
2018-10-16T06:50:00.390Z,12.80
2018-10-16T06:52:35.769Z,13.07
2018-10-16T06:55:05.197Z,11.77
2018-10-16T06:57:34.933Z,12.57
2018-10-16T07:00:03.311Z,12.97
2018-10-16T07:02:31.724Z,12.70
2018-10-16T07:05:00.157Z,13.43
2018-10-16T07:07:29.264Z,12.83
2018-10-16T07:09:57.655Z,13.20
2018-10-16T07:12:26.023Z,13.20
2018-10-16T07:14:54.422Z,12.97
2018-10-16T07:17:22.898Z,13.63
2018-10-16T07:19:51.291Z,14.20
2018-10-16T07:22:19.641Z,14.17
2018-10-16T07:24:48.052Z,14.30
2018-10-16T07:27:16.553Z,13.03
2018-10-16T07:29:44.936Z,12.33
2018-10-16T07:32:13.417Z,13.80
2018-10-16T07:34:41.776Z,12.43
2018-10-16T07:37:10.186Z,12.03
2018-10-16T07:39:38.520Z,12.70
2018-10-16T07:42:06.904Z,12.40
2018-10-16T07:44:36.043Z,11.70
2018-10-16T07:47:05.184Z,11.90
2018-10-16T07:49:33.591Z,12.37
2018-10-16T07:52:01.928Z,11.53
2018-10-16T07:54:30.308Z,11.87
2018-10-16T07:56:58.641Z,12.77
2018-10-16T07:59:27.098Z,11.93
2018-10-16T08:01:55.464Z,10.97
2018-10-16T08:04:23.814Z,13.60
2018-10-16T08:06:52.205Z,12.20
2018-10-16T08:09:20.547Z,12.20
2018-10-16T08:11:48.909Z,12.43
2018-10-16T08:14:17.372Z,13.20
2018-10-16T08:16:45.728Z,12.33
2018-10-16T08:19:14.105Z,12.93
2018-10-16T08:21:42.475Z,12.73
2018-10-16T08:24:10.819Z,12.70
2018-10-16T08:26:39.226Z,12.87
2018-10-16T08:29:07.578Z,12.43
2018-10-16T08:31:35.935Z,12.77
2018-10-16T08:34:04.297Z,12.93
2018-10-16T08:36:32.810Z,13.80
2018-10-16T08:39:01.036Z,12.93
2018-10-16T08:41:29.415Z,12.23
2018-10-16T08:44:01.530Z,12.80
2018-10-16T08:52:35.576Z,14.23
2018-10-16T08:55:04.055Z,12.88
2018-10-16T08:57:32.289Z,12.98
2018-10-16T09:00:00.647Z,13.07
2018-10-16T09:02:29.777Z,13.52
2018-10-16T09:04:58.149Z,12.15
2018-10-16T09:07:26.647Z,13.90
2018-10-16T09:09:55.047Z,13.68
2018-10-16T09:12:23.403Z,12.90
2018-10-16T09:14:51.806Z,13.60
2018-10-16T09:17:20.694Z,16.12
2018-10-16T09:19:49.068Z,14.35
2018-10-16T09:22:17.413Z,13.40
2018-10-16T09:24:45.895Z,13.23
2018-10-16T09:27:14.918Z,13.48
2018-10-16T09:29:43.296Z,12.68
2018-10-16T09:32:11.702Z,13.13
2018-10-16T09:34:40.154Z,13.70
2018-10-16T09:37:08.484Z,13.05
2018-10-16T09:39:37.643Z,13.80
2018-10-16T09:42:06.032Z,14.35
2018-10-16T09:44:34.489Z,13.75
2018-10-16T09:47:03.164Z,14.68
2018-10-16T09:49:31.592Z,13.73
2018-10-16T09:51:59.872Z,13.60
2018-10-16T09:54:28.214Z,14.68
2018-10-16T09:56:56.589Z,13.60
2018-10-16T09:59:24.945Z,13.75
2018-10-16T10:01:53.320Z,14.98
2018-10-16T10:04:21.703Z,15.45
2018-10-16T10:06:50.067Z,15.38
2018-10-16T10:09:18.402Z,14.55
2018-10-16T10:11:46.789Z,15.00
2018-10-16T10:14:15.138Z,15.45
2018-10-16T10:16:43.502Z,14.70
2018-10-16T10:19:11.867Z,14.95
2018-10-16T10:21:40.996Z,14.95
2018-10-16T10:24:09.376Z,13.38
2018-10-16T10:26:37.765Z,15.07
2018-10-16T10:29:06.250Z,13.48
2018-10-16T10:31:34.616Z,13.48
2018-10-16T10:34:03.068Z,13.52
2018-10-16T10:36:32.134Z,14.02
2018-10-16T10:39:00.538Z,12.90
2018-10-16T10:41:29.712Z,13.88
2018-10-16T10:43:58.054Z,12.85
2018-10-16T10:46:26.500Z,13.55
2018-10-16T10:48:55.660Z,12.80
2018-10-16T10:51:24.260Z,12.98
2018-10-16T10:53:52.391Z,11.00
2018-10-16T10:56:20.759Z,11.55
2018-10-16T10:58:49.137Z,11.52
2018-10-16T11:01:17.559Z,10.77
2018-10-16T11:03:46.111Z,11.63
2018-10-16T11:06:14.621Z,11.10
2018-10-16T11:08:43.011Z,11.43
2018-10-16T11:11:11.386Z,11.80
2018-10-16T11:13:39.740Z,11.57
2018-10-16T11:16:08.138Z,12.50
2018-10-16T11:18:36.496Z,13.57
2018-10-16T11:21:05.011Z,15.35
2018-10-16T11:23:33.337Z,15.55
2018-10-16T11:26:01.718Z,17.08
2018-10-16T11:28:30.131Z,18.60
2018-10-16T11:30:58.526Z,18.37
2018-10-16T11:33:27.498Z,18.77
2018-10-16T11:35:55.986Z,19.02
2018-10-16T11:38:24.370Z,20.45
2018-10-16T11:40:52.784Z,20.80
2018-10-16T11:43:21.942Z,19.40
2018-10-16T11:45:51.050Z,19.98
2018-10-16T11:48:20.240Z,18.02
2018-10-16T11:50:48.590Z,19.08
2018-10-16T11:53:17.036Z,19.90
2018-10-16T11:55:45.410Z,18.23
2018-10-16T11:58:14.588Z,18.33
2018-10-16T12:00:42.960Z,17.27
2018-10-16T12:03:12.370Z,19.42
2018-10-16T12:05:40.730Z,21.65
2018-10-16T12:08:09.149Z,20.90
2018-10-16T12:10:37.532Z,19.42
2018-10-16T12:13:05.850Z,19.05
2018-10-16T12:15:34.265Z,19.35
2018-10-16T12:18:02.590Z,17.27
2018-10-16T12:20:30.952Z,17.58
2018-10-16T12:23:00.065Z,15.07
2018-10-16T12:25:28.479Z,15.93
2018-10-16T12:27:56.834Z,15.68
2018-10-16T12:30:25.192Z,16.70
2018-10-16T12:32:54.323Z,15.18
2018-10-16T12:35:22.691Z,13.95
2018-10-16T12:37:51.068Z,14.52
2018-10-16T12:40:19.517Z,13.52
2018-10-16T12:42:48.040Z,13.85
2018-10-16T12:45:16.389Z,13.88
2018-10-16T12:47:44.744Z,11.88
2018-10-16T12:50:13.113Z,12.73
2018-10-16T12:52:41.552Z,13.10
2018-10-16T12:55:10.012Z,12.60
2018-10-16T12:57:39.114Z,13.50
2018-10-16T13:00:08.391Z,13.35
2018-10-16T13:02:36.730Z,14.30
2018-10-16T13:05:05.181Z,14.13
2018-10-16T13:07:33.482Z,14.48
2018-10-16T13:10:01.869Z,14.85
2018-10-16T13:12:30.252Z,14.77
2018-10-16T13:14:58.611Z,14.90
2018-10-16T13:17:27.162Z,14.77
2018-10-16T13:19:55.509Z,14.45
2018-10-16T13:22:23.900Z,14.45
2018-10-16T13:24:53.049Z,14.18
2018-10-16T13:27:21.388Z,14.40
2018-10-16T13:29:50.556Z,13.52
2018-10-16T13:32:18.919Z,13.52
2018-10-16T13:34:48.204Z,15.27
2018-10-16T13:37:16.549Z,14.30
2018-10-16T13:39:45.644Z,15.15
2018-10-16T13:42:14.793Z,14.82
2018-10-16T13:44:43.130Z,16.35
2018-10-16T13:47:12.262Z,14.07
2018-10-16T13:49:40.588Z,13.95
2018-10-16T13:52:09.782Z,13.77
2018-10-16T13:54:38.121Z,12.90
2018-10-16T13:57:06.597Z,12.85
2018-10-16T13:59:34.947Z,12.57
2018-10-16T14:02:03.381Z,13.15
2018-10-16T14:04:31.718Z,13.45
2018-10-16T14:07:00.104Z,12.82
2018-10-16T14:09:28.492Z,13.13
2018-10-16T14:11:56.886Z,12.45
2018-10-16T14:14:25.240Z,12.63
2018-10-16T14:16:53.662Z,12.93
2018-10-16T14:19:22.744Z,13.05
2018-10-16T14:21:52.167Z,12.48
2018-10-16T14:24:20.472Z,12.63
2018-10-16T14:26:49.645Z,12.48
2018-10-16T14:29:18.126Z,12.10
2018-10-16T14:31:46.476Z,14.70
2018-10-16T14:34:15.387Z,13.45
2018-10-16T14:36:44.429Z,13.68
2018-10-16T14:39:12.784Z,14.63
2018-10-16T14:41:41.352Z,13.45
2018-10-16T14:44:10.005Z,14.55
2018-10-16T14:46:38.273Z,13.95
2018-10-16T14:49:06.639Z,13.98
2018-10-16T14:51:35.061Z,12.18
2018-10-16T14:54:03.445Z,13.70
2018-10-16T14:56:31.822Z,12.93
2018-10-16T14:59:00.272Z,15.32
2018-10-16T15:01:28.600Z,13.27
2018-10-16T15:03:57.882Z,15.13
2018-10-16T15:06:26.455Z,13.77
2018-10-16T15:08:54.804Z,15.43
2018-10-16T15:11:23.160Z,13.88
2018-10-16T15:13:52.649Z,13.18
2018-10-16T15:16:21.076Z,13.43
2018-10-16T15:18:49.619Z,13.35
2018-10-16T15:21:18.132Z,11.95
2018-10-16T15:23:47.771Z,11.68
2018-10-16T15:26:16.239Z,11.57
2018-10-16T15:28:44.582Z,11.00
2018-10-16T15:31:13.842Z,11.00
2018-10-16T15:33:42.232Z,10.18
2018-10-16T15:36:10.599Z,10.60
2018-10-16T15:38:38.924Z,9.93
2018-10-16T15:41:08.076Z,10.25
2018-10-16T15:43:36.398Z,10.55
2018-10-16T15:46:04.823Z,10.77
2018-10-16T15:48:33.235Z,10.48
2018-10-16T15:51:01.581Z,11.20
2018-10-16T15:53:29.975Z,11.32
2018-10-16T15:55:58.380Z,13.60
2018-10-16T15:58:26.870Z,13.68
2018-10-16T16:00:55.364Z,13.48
2018-10-16T16:03:24.503Z,14.25
2018-10-16T16:05:52.887Z,14.93
2018-10-16T16:08:21.240Z,15.60
2018-10-16T16:10:49.644Z,14.43
2018-10-16T16:13:18.017Z,15.13
2018-10-16T16:15:46.540Z,13.98
2018-10-16T16:18:14.934Z,14.40
2018-10-16T16:20:43.292Z,14.00
2018-10-16T16:23:11.678Z,14.57
2018-10-16T16:25:40.074Z,13.75
2018-10-16T16:28:08.401Z,12.85
2018-10-16T16:30:36.812Z,13.05
2018-10-16T16:33:05.177Z,12.70
2018-10-16T16:35:33.553Z,12.27
2018-10-16T16:38:01.971Z,12.85
2018-10-16T16:40:30.485Z,12.35
2018-10-16T16:42:58.877Z,11.98
2018-10-16T16:45:27.301Z,11.95
2018-10-16T16:47:55.716Z,11.55
2018-10-16T16:50:24.859Z,12.85
2018-10-16T16:52:53.251Z,11.45
2018-10-16T16:55:21.685Z,11.43
2018-10-16T16:57:50.099Z,10.45
2018-10-16T17:00:18.559Z,12.70
2018-10-16T17:02:47.013Z,13.10
2018-10-16T17:05:16.233Z,12.13
2018-10-16T17:07:44.783Z,15.67
2018-10-16T17:10:13.271Z,14.10
2018-10-16T17:12:41.526Z,13.27
2018-10-16T17:15:09.876Z,13.57
2018-10-16T17:17:38.287Z,14.03
2018-10-16T17:20:06.754Z,12.50
2018-10-16T17:22:35.171Z,12.07
2018-10-16T17:25:03.684Z,13.37
2018-10-16T17:27:31.966Z,14.02
2018-10-16T17:30:00.366Z,14.60
2018-10-16T17:32:28.736Z,19.60
2018-10-16T17:34:57.282Z,19.20
2018-10-16T17:37:25.631Z,15.57
2018-10-16T17:39:54.764Z,14.60
2018-10-16T17:42:23.184Z,14.33
2018-10-16T17:44:51.629Z,15.50
2018-10-16T17:47:19.989Z,18.33
2018-10-16T17:49:48.418Z,16.17
2018-10-16T17:52:16.798Z,14.10
2018-10-16T17:54:45.140Z,14.83
2018-10-16T17:57:13.526Z,14.50
2018-10-16T17:59:41.934Z,15.83
2018-10-16T18:02:10.281Z,16.37
2018-10-16T18:04:38.716Z,14.00
2018-10-16T18:07:07.043Z,15.13
2018-10-16T18:09:35.402Z,14.53
2018-10-16T18:12:03.769Z,15.73
2018-10-16T18:14:32.892Z,15.90
2018-10-16T18:17:01.326Z,16.10
2018-10-16T18:19:29.751Z,29.37
2018-10-16T18:21:58.120Z,24.73
2018-10-16T18:24:26.587Z,26.73
2018-10-16T18:26:55.815Z,22.00
2018-10-16T18:29:24.201Z,18.93
2018-10-16T18:31:52.587Z,14.50
2018-10-16T18:34:21.554Z,14.53
2018-10-16T18:36:50.200Z,14.67
2018-10-16T18:39:18.642Z,17.03
2018-10-16T18:41:46.974Z,17.70
2018-10-16T18:44:16.131Z,15.90
2018-10-16T18:46:44.517Z,16.40
2018-10-16T18:49:12.891Z,16.60
2018-10-16T18:51:41.296Z,16.57
2018-10-16T18:54:09.669Z,16.57
2018-10-16T18:56:38.391Z,15.33
2018-10-16T18:59:06.838Z,15.17
2018-10-16T19:01:35.241Z,19.50
2018-10-16T19:04:03.661Z,18.27
2018-10-16T19:06:32.063Z,21.37
2018-10-16T19:09:00.442Z,18.17
2018-10-16T19:11:28.807Z,16.83
2018-10-16T19:13:57.245Z,16.57
2018-10-16T19:16:25.547Z,14.87
2018-10-16T19:18:53.937Z,16.67
2018-10-16T19:21:22.312Z,14.93
2018-10-16T19:23:50.692Z,16.43
2018-10-16T19:26:19.041Z,17.00
2018-10-16T19:28:48.322Z,16.55
2018-10-16T19:31:16.748Z,16.20
2018-10-16T19:33:45.085Z,15.67
2018-10-16T19:36:13.445Z,16.70
2018-10-16T19:38:41.826Z,17.60
2018-10-16T19:41:10.204Z,17.13
2018-10-16T19:43:38.598Z,16.63
2018-10-16T19:46:07.733Z,16.75
2018-10-16T19:48:36.147Z,17.00
2018-10-16T19:51:04.648Z,15.97
2018-10-16T19:53:32.946Z,17.20
2018-10-16T19:56:01.299Z,16.70
2018-10-16T19:58:29.764Z,18.83
2018-10-16T20:00:58.332Z,17.57
2018-10-16T20:03:26.665Z,17.07
2018-10-16T20:05:55.900Z,17.10
2018-10-16T20:08:24.435Z,17.17
2018-10-16T20:10:53.697Z,17.83
2018-10-16T20:13:22.088Z,18.33
2018-10-16T20:15:50.592Z,16.60
2018-10-16T20:18:18.952Z,16.80
2018-10-16T20:20:47.357Z,17.47
2018-10-16T20:23:16.561Z,18.17
2018-10-16T20:25:44.886Z,18.23
2018-10-16T20:28:13.273Z,18.03
2018-10-16T20:30:41.666Z,19.00
2018-10-16T20:33:10.039Z,18.73
2018-10-16T20:35:38.520Z,19.70
2018-10-16T20:38:06.901Z,39.73
2018-10-16T20:40:35.238Z,39.07
2018-10-16T20:43:03.673Z,22.13
2018-10-16T20:45:32.025Z,18.03
2018-10-16T20:48:00.404Z,17.80
2018-10-16T20:50:28.766Z,16.93
2018-10-16T20:52:57.153Z,17.47
2018-10-16T20:55:25.684Z,16.80
2018-10-16T20:57:54.026Z,16.67
2018-10-16T21:00:22.450Z,18.03
2018-10-16T21:02:50.837Z,17.77
2018-10-16T21:05:19.401Z,19.83
2018-10-16T21:07:48.449Z,21.13
2018-10-16T21:10:16.797Z,18.87
2018-10-16T21:12:45.234Z,20.60
2018-10-16T21:15:13.614Z,20.57
2018-10-16T21:17:41.926Z,18.77
2018-10-16T21:20:10.477Z,20.13
2018-10-16T21:22:38.824Z,20.13
2018-10-16T21:25:07.233Z,20.87
2018-10-16T21:27:35.514Z,20.27
2018-10-16T21:30:03.995Z,21.07
2018-10-16T21:32:32.328Z,19.63
2018-10-16T21:35:01.516Z,19.43
2018-10-16T21:37:29.848Z,18.87
2018-10-16T21:39:58.204Z,18.63
2018-10-16T21:42:26.539Z,19.23
2018-10-16T21:44:54.991Z,20.67
2018-10-16T21:47:23.340Z,20.37
2018-10-16T21:49:51.758Z,20.83
2018-10-16T21:52:20.076Z,22.13
2018-10-16T21:54:49.211Z,21.83
2018-10-16T21:57:17.553Z,20.90
2018-10-16T21:59:46.695Z,19.97
2018-10-16T22:02:15.042Z,21.10
2018-10-16T22:04:44.167Z,21.40
2018-10-16T22:07:12.584Z,20.23
2018-10-16T22:09:40.898Z,19.97
2018-10-16T22:12:09.257Z,19.10
2018-10-16T22:14:39.331Z,20.00
2018-10-16T22:17:07.681Z,19.87
2018-10-16T22:19:36.054Z,19.47
2018-10-16T22:22:04.412Z,20.97
2018-10-16T22:24:32.793Z,20.93
2018-10-16T22:27:01.178Z,21.43
2018-10-16T22:29:30.281Z,20.97
2018-10-16T22:31:59.416Z,20.47
2018-10-16T22:34:27.799Z,20.23
2018-10-16T22:36:56.223Z,20.23
2018-10-16T22:39:24.503Z,21.83
2018-10-16T22:41:53.635Z,20.93
2018-10-16T22:44:21.983Z,21.83
2018-10-16T22:46:51.076Z,20.63
2018-10-16T22:49:20.247Z,21.70
2018-10-16T22:51:48.599Z,23.83
2018-10-16T22:54:16.980Z,21.93
2018-10-16T22:56:45.357Z,23.33
2018-10-16T22:59:13.898Z,24.67
2018-10-16T23:01:42.213Z,23.97
2018-10-16T23:04:10.573Z,22.73
2018-10-16T23:06:38.954Z,25.37
2018-10-16T23:09:07.372Z,24.27
2018-10-16T23:11:35.745Z,26.10
2018-10-16T23:14:04.815Z,24.83
2018-10-16T23:16:33.142Z,24.27
2018-10-16T23:19:01.549Z,23.50
2018-10-16T23:21:29.854Z,25.77
2018-10-16T23:23:58.230Z,24.63
2018-10-16T23:26:26.597Z,25.03
2018-10-16T23:28:55.822Z,23.63
2018-10-16T23:31:24.113Z,25.33
2018-10-16T23:33:52.488Z,25.10
2018-10-16T23:36:20.892Z,23.87
2018-10-16T23:38:49.262Z,23.90
2018-10-16T23:41:17.728Z,26.33
2018-10-16T23:43:46.035Z,26.43
2018-10-16T23:46:14.414Z,24.57
2018-10-16T23:48:42.765Z,25.70
2018-10-16T23:51:11.148Z,23.93
2018-10-16T23:53:39.513Z,24.10
2018-10-16T23:56:07.899Z,24.47
2018-10-16T23:58:36.269Z,23.63
